TAF KSBY
KSBY 090520Z 0906/1006 32008KT P6SM SKC FM091400 34006KT P6SM SCT250 FM091800 32006KT P6SM BKN250 FM092200 VRB03KT P6SM BKN200=
METAR KSBY
WC KSBY
WS KSBY
WV KSBY